sensor_id;sensor_type;location;lat;lon;timestamp;temperature;humidity
38183;DHT22;23991;52.430;10.586;2023-10-09T00:02:11;13.80;76.30
38183;DHT22;23991;52.430;10.586;2023-10-09T00:04:43;13.80;76.20
38183;DHT22;23991;52.430;10.586;2023-10-09T00:07:12;13.80;76.10
38183;DHT22;23991;52.430;10.586;2023-10-09T00:09:38;13.80;76.10
38183;DHT22;23991;52.430;10.586;2023-10-09T00:12:17;13.80;76.40
38183;DHT22;23991;52.430;10.586;2023-10-09T00:14:48;13.80;76.90
38183;DHT22;23991;52.430;10.586;2023-10-09T00:17:17;13.80;76.90
38183;DHT22;23991;52.430;10.586;2023-10-09T00:19:46;13.80;76.70
38183;DHT22;23991;52.430;10.586;2023-10-09T00:22:15;13.80;77.00
38183;DHT22;23991;52.430;10.586;2023-10-09T00:25:03;13.80;77.40
38183;DHT22;23991;52.430;10.586;2023-10-09T00:27:41;13.80;77.20
38183;DHT22;23991;52.430;10.586;2023-10-09T00:30:10;13.80;77.30
38183;DHT22;23991;52.430;10.586;2023-10-09T00:32:37;13.80;77.00
38183;DHT22;23991;52.430;10.586;2023-10-09T00:35:10;13.70;76.60
38183;DHT22;23991;52.430;10.586;2023-10-09T00:37:54;13.70;76.80
38183;DHT22;23991;52.430;10.586;2023-10-09T00:40:40;13.70;77.10
38183;DHT22;23991;52.430;10.586;2023-10-09T00:43:16;13.70;77.50
38183;DHT22;23991;52.430;10.586;2023-10-09T00:45:46;13.70;77.50
38183;DHT22;23991;52.430;10.586;2023-10-09T00:48:12;13.70;77.50
38183;DHT22;23991;52.430;10.586;2023-10-09T00:50:49;13.60;77.70
38183;DHT22;23991;52.430;10.586;2023-10-09T00:53:19;13.70;77.70
38183;DHT22;23991;52.430;10.586;2023-10-09T00:55:57;13.60;77.20
38183;DHT22;23991;52.430;10.586;2023-10-09T00:58:23;13.60;77.00
38183;DHT22;23991;52.430;10.586;2023-10-09T01:00:56;13.60;76.80
38183;DHT22;23991;52.430;10.586;2023-10-09T01:03:24;13.60;76.80
38183;DHT22;23991;52.430;10.586;2023-10-09T01:05:57;13.60;76.60
38183;DHT22;23991;52.430;10.586;2023-10-09T01:08:24;13.60;76.70
38183;DHT22;23991;52.430;10.586;2023-10-09T01:10:54;13.60;76.50
38183;DHT22;23991;52.430;10.586;2023-10-09T01:13:35;13.60;76.50
38183;DHT22;23991;52.430;10.586;2023-10-09T01:16:17;13.60;77.10
38183;DHT22;23991;52.430;10.586;2023-10-09T01:18:47;13.60;77.40
38183;DHT22;23991;52.430;10.586;2023-10-09T01:21:19;13.60;77.40
38183;DHT22;23991;52.430;10.586;2023-10-09T01:23:57;13.60;77.50
38183;DHT22;23991;52.430;10.586;2023-10-09T01:26:25;13.60;77.80
38183;DHT22;23991;52.430;10.586;2023-10-09T01:28:51;13.60;78.20
38183;DHT22;23991;52.430;10.586;2023-10-09T01:31:24;13.60;78.40
38183;DHT22;23991;52.430;10.586;2023-10-09T01:33:51;13.60;78.20
38183;DHT22;23991;52.430;10.586;2023-10-09T01:36:19;13.60;78.00
38183;DHT22;23991;52.430;10.586;2023-10-09T01:38:59;13.60;78.10
38183;DHT22;23991;52.430;10.586;2023-10-09T01:41:26;13.60;78.20
38183;DHT22;23991;52.430;10.586;2023-10-09T01:43:52;13.60;78.20
38183;DHT22;23991;52.430;10.586;2023-10-09T01:46:26;13.60;78.00
38183;DHT22;23991;52.430;10.586;2023-10-09T01:48:51;13.50;78.10
38183;DHT22;23991;52.430;10.586;2023-10-09T01:51:19;13.50;78.20
38183;DHT22;23991;52.430;10.586;2023-10-09T01:53:45;13.50;78.30
38183;DHT22;23991;52.430;10.586;2023-10-09T01:56:19;13.50;78.40
38183;DHT22;23991;52.430;10.586;2023-10-09T01:58:45;13.50;78.60
38183;DHT22;23991;52.430;10.586;2023-10-09T02:01:13;13.50;78.80
38183;DHT22;23991;52.430;10.586;2023-10-09T02:03:39;13.50;78.80
38183;DHT22;23991;52.430;10.586;2023-10-09T02:06:08;13.50;79.00
38183;DHT22;23991;52.430;10.586;2023-10-09T02:08:55;13.50;79.00
38183;DHT22;23991;52.430;10.586;2023-10-09T02:11:22;13.50;79.30
38183;DHT22;23991;52.430;10.586;2023-10-09T02:14:07;13.50;79.30
38183;DHT22;23991;52.430;10.586;2023-10-09T02:16:48;13.50;79.50
38183;DHT22;23991;52.430;10.586;2023-10-09T02:19:33;13.50;79.60
38183;DHT22;23991;52.430;10.586;2023-10-09T02:22:03;13.50;79.80
38183;DHT22;23991;52.430;10.586;2023-10-09T02:24:40;13.40;79.60
38183;DHT22;23991;52.430;10.586;2023-10-09T02:27:16;13.40;79.60
38183;DHT22;23991;52.430;10.586;2023-10-09T02:29:52;13.40;79.50
38183;DHT22;23991;52.430;10.586;2023-10-09T02:32:21;13.40;79.50
38183;DHT22;23991;52.430;10.586;2023-10-09T02:34:51;13.40;79.50
38183;DHT22;23991;52.430;10.586;2023-10-09T02:37:20;13.40;79.80
38183;DHT22;23991;52.430;10.586;2023-10-09T02:39:49;13.30;80.00
38183;DHT22;23991;52.430;10.586;2023-10-09T02:42:18;13.30;80.00
38183;DHT22;23991;52.430;10.586;2023-10-09T02:44:52;13.30;80.10
38183;DHT22;23991;52.430;10.586;2023-10-09T02:47:18;13.30;80.30
38183;DHT22;23991;52.430;10.586;2023-10-09T02:49:55;13.30;80.50
38183;DHT22;23991;52.430;10.586;2023-10-09T02:52:26;13.30;80.80
38183;DHT22;23991;52.430;10.586;2023-10-09T02:54:58;13.30;80.70
38183;DHT22;23991;52.430;10.586;2023-10-09T02:57:34;13.30;80.80
38183;DHT22;23991;52.430;10.586;2023-10-09T03:00:06;13.30;80.90
38183;DHT22;23991;52.430;10.586;2023-10-09T03:02:44;13.30;81.00
38183;DHT22;23991;52.430;10.586;2023-10-09T03:05:11;13.30;80.90
38183;DHT22;23991;52.430;10.586;2023-10-09T03:07:38;13.30;81.00
38183;DHT22;23991;52.430;10.586;2023-10-09T03:10:06;13.30;81.20
38183;DHT22;23991;52.430;10.586;2023-10-09T03:12:35;13.30;81.00
38183;DHT22;23991;52.430;10.586;2023-10-09T03:15:01;13.20;80.70
38183;DHT22;23991;52.430;10.586;2023-10-09T03:17:28;13.20;80.30
38183;DHT22;23991;52.430;10.586;2023-10-09T03:19:54;13.10;80.10
38183;DHT22;23991;52.430;10.586;2023-10-09T03:22:20;13.10;79.80
38183;DHT22;23991;52.430;10.586;2023-10-09T03:24:45;13.10;79.70
38183;DHT22;23991;52.430;10.586;2023-10-09T03:27:11;13.10;79.30
38183;DHT22;23991;52.430;10.586;2023-10-09T03:29:39;13.10;79.20
38183;DHT22;23991;52.430;10.586;2023-10-09T03:32:05;13.10;79.40
38183;DHT22;23991;52.430;10.586;2023-10-09T03:34:32;13.00;78.90
38183;DHT22;23991;52.430;10.586;2023-10-09T03:36:58;13.00;79.00
38183;DHT22;23991;52.430;10.586;2023-10-09T03:39:33;13.00;79.30
38183;DHT22;23991;52.430;10.586;2023-10-09T03:42:03;13.10;79.50
38183;DHT22;23991;52.430;10.586;2023-10-09T03:44:34;13.10;79.80
38183;DHT22;23991;52.430;10.586;2023-10-09T03:47:01;13.00;79.80
38183;DHT22;23991;52.430;10.586;2023-10-09T03:49:28;13.00;79.60
38183;DHT22;23991;52.430;10.586;2023-10-09T03:51:54;13.00;80.00
38183;DHT22;23991;52.430;10.586;2023-10-09T03:54:21;13.00;80.00
38183;DHT22;23991;52.430;10.586;2023-10-09T03:56:48;13.10;80.20
38183;DHT22;23991;52.430;10.586;2023-10-09T03:59:20;13.00;80.40
38183;DHT22;23991;52.430;10.586;2023-10-09T04:01:47;13.00;80.40
38183;DHT22;23991;52.430;10.586;2023-10-09T04:04:18;13.00;80.50
38183;DHT22;23991;52.430;10.586;2023-10-09T04:06:48;13.00;80.40
38183;DHT22;23991;52.430;10.586;2023-10-09T04:09:14;13.00;80.30
38183;DHT22;23991;52.430;10.586;2023-10-09T04:11:50;13.00;80.30
38183;DHT22;23991;52.430;10.586;2023-10-09T04:14:29;13.00;80.40
38183;DHT22;23991;52.430;10.586;2023-10-09T04:16:59;13.00;80.70
38183;DHT22;23991;52.430;10.586;2023-10-09T04:19:51;13.00;80.70
38183;DHT22;23991;52.430;10.586;2023-10-09T04:22:35;13.00;80.90
38183;DHT22;23991;52.430;10.586;2023-10-09T04:25:20;13.00;80.90
38183;DHT22;23991;52.430;10.586;2023-10-09T04:28:03;13.00;81.10
38183;DHT22;23991;52.430;10.586;2023-10-09T04:30:38;13.00;81.00
38183;DHT22;23991;52.430;10.586;2023-10-09T04:33:12;13.00;80.90
38183;DHT22;23991;52.430;10.586;2023-10-09T04:36:04;13.00;80.90
38183;DHT22;23991;52.430;10.586;2023-10-09T04:38:55;13.00;81.00
38183;DHT22;23991;52.430;10.586;2023-10-09T04:41:33;13.00;81.10
38183;DHT22;23991;52.430;10.586;2023-10-09T04:44:17;13.00;81.10
38183;DHT22;23991;52.430;10.586;2023-10-09T04:46:51;13.00;81.30
38183;DHT22;23991;52.430;10.586;2023-10-09T04:49:36;13.10;81.50
38183;DHT22;23991;52.430;10.586;2023-10-09T04:52:15;13.10;81.60
38183;DHT22;23991;52.430;10.586;2023-10-09T04:54:57;13.10;81.80
38183;DHT22;23991;52.430;10.586;2023-10-09T05:03:01;13.10;81.90
38183;DHT22;23991;52.430;10.586;2023-10-09T05:05:38;13.00;81.80
38183;DHT22;23991;52.430;10.586;2023-10-09T05:08:17;13.00;81.70
38183;DHT22;23991;52.430;10.586;2023-10-09T05:11:02;13.00;81.60
38183;DHT22;23991;52.430;10.586;2023-10-09T05:16:16;12.90;81.70
38183;DHT22;23991;52.430;10.586;2023-10-09T05:18:51;12.90;82.00
38183;DHT22;23991;52.430;10.586;2023-10-09T05:21:34;12.90;82.30
38183;DHT22;23991;52.430;10.586;2023-10-09T05:24:02;12.90;82.40
38183;DHT22;23991;52.430;10.586;2023-10-09T05:26:38;12.90;82.50
38183;DHT22;23991;52.430;10.586;2023-10-09T05:29:30;12.90;82.60
38183;DHT22;23991;52.430;10.586;2023-10-09T05:32:03;12.90;82.80
38183;DHT22;23991;52.430;10.586;2023-10-09T05:34:42;12.90;82.90
38183;DHT22;23991;52.430;10.586;2023-10-09T05:37:31;12.90;83.00
38183;DHT22;23991;52.430;10.586;2023-10-09T05:40:00;12.90;83.10
38183;DHT22;23991;52.430;10.586;2023-10-09T05:42:31;12.90;83.20
38183;DHT22;23991;52.430;10.586;2023-10-09T05:45:00;12.90;83.20
38183;DHT22;23991;52.430;10.586;2023-10-09T05:47:45;13.00;83.30
38183;DHT22;23991;52.430;10.586;2023-10-09T05:50:27;13.10;83.30
38183;DHT22;23991;52.430;10.586;2023-10-09T05:52:57;13.00;83.30
38183;DHT22;23991;52.430;10.586;2023-10-09T05:55:35;13.00;83.50
38183;DHT22;23991;52.430;10.586;2023-10-09T05:58:20;13.00;83.80
38183;DHT22;23991;52.430;10.586;2023-10-09T06:01:04;13.00;83.90
38183;DHT22;23991;52.430;10.586;2023-10-09T06:03:48;13.00;84.10
38183;DHT22;23991;52.430;10.586;2023-10-09T06:06:15;12.90;84.00
38183;DHT22;23991;52.430;10.586;2023-10-09T06:09:05;13.00;84.10
38183;DHT22;23991;52.430;10.586;2023-10-09T06:11:47;13.00;84.20
38183;DHT22;23991;52.430;10.586;2023-10-09T06:14:21;13.00;84.30
38183;DHT22;23991;52.430;10.586;2023-10-09T06:16:58;13.00;84.30
38183;DHT22;23991;52.430;10.586;2023-10-09T06:19:39;13.00;84.30
38183;DHT22;23991;52.430;10.586;2023-10-09T06:22:14;13.00;84.40
38183;DHT22;23991;52.430;10.586;2023-10-09T06:25:15;13.00;84.50
38183;DHT22;23991;52.430;10.586;2023-10-09T06:27:44;13.00;84.50
38183;DHT22;23991;52.430;10.586;2023-10-09T06:30:18;12.90;84.50
38183;DHT22;23991;52.430;10.586;2023-10-09T06:32:44;13.00;84.70
38183;DHT22;23991;52.430;10.586;2023-10-09T06:35:17;12.90;84.80
38183;DHT22;23991;52.430;10.586;2023-10-09T06:37:56;12.90;84.70
38183;DHT22;23991;52.430;10.586;2023-10-09T06:43:13;13.00;84.80
38183;DHT22;23991;52.430;10.586;2023-10-09T06:45:57;12.90;84.70
38183;DHT22;23991;52.430;10.586;2023-10-09T06:48:41;12.90;84.90
38183;DHT22;23991;52.430;10.586;2023-10-09T06:51:13;12.90;84.90
38183;DHT22;23991;52.430;10.586;2023-10-09T06:53:55;13.00;85.00
38183;DHT22;23991;52.430;10.586;2023-10-09T06:56:25;13.00;85.10
38183;DHT22;23991;52.430;10.586;2023-10-09T06:59:01;13.00;85.10
38183;DHT22;23991;52.430;10.586;2023-10-09T07:01:45;13.10;85.10
38183;DHT22;23991;52.430;10.586;2023-10-09T07:04:15;13.10;85.10
38183;DHT22;23991;52.430;10.586;2023-10-09T07:07:01;13.10;85.10
38183;DHT22;23991;52.430;10.586;2023-10-09T07:09:27;13.10;85.00
38183;DHT22;23991;52.430;10.586;2023-10-09T07:12:11;13.10;85.00
38183;DHT22;23991;52.430;10.586;2023-10-09T07:14:46;13.10;84.90
38183;DHT22;23991;52.430;10.586;2023-10-09T07:17:12;13.20;84.80
38183;DHT22;23991;52.430;10.586;2023-10-09T07:19:56;13.20;84.80
38183;DHT22;23991;52.430;10.586;2023-10-09T07:22:41;13.20;84.90
38183;DHT22;23991;52.430;10.586;2023-10-09T07:25:22;13.30;84.60
38183;DHT22;23991;52.430;10.586;2023-10-09T07:27:55;13.30;84.50
38183;DHT22;23991;52.430;10.586;2023-10-09T07:30:21;13.30;84.30
38183;DHT22;23991;52.430;10.586;2023-10-09T07:33:06;13.40;84.30
38183;DHT22;23991;52.430;10.586;2023-10-09T07:35:42;13.50;83.90
38183;DHT22;23991;52.430;10.586;2023-10-09T07:38:16;13.60;83.70
38183;DHT22;23991;52.430;10.586;2023-10-09T07:40:45;13.70;83.30
38183;DHT22;23991;52.430;10.586;2023-10-09T07:43:34;13.80;83.00
38183;DHT22;23991;52.430;10.586;2023-10-09T07:46:16;13.80;82.80
38183;DHT22;23991;52.430;10.586;2023-10-09T07:49:05;13.90;82.70
38183;DHT22;23991;52.430;10.586;2023-10-09T07:51:40;13.90;82.60
38183;DHT22;23991;52.430;10.586;2023-10-09T07:54:10;14.00;82.40
38183;DHT22;23991;52.430;10.586;2023-10-09T07:56:43;14.10;82.20
38183;DHT22;23991;52.430;10.586;2023-10-09T07:59:13;14.10;82.10
38183;DHT22;23991;52.430;10.586;2023-10-09T08:01:44;14.20;81.90
38183;DHT22;23991;52.430;10.586;2023-10-09T08:04:20;14.30;81.60
38183;DHT22;23991;52.430;10.586;2023-10-09T08:07:06;14.30;81.70
38183;DHT22;23991;52.430;10.586;2023-10-09T08:09:32;14.40;81.50
38183;DHT22;23991;52.430;10.586;2023-10-09T08:12:12;14.50;81.00
38183;DHT22;23991;52.430;10.586;2023-10-09T08:15:04;14.50;80.90
38183;DHT22;23991;52.430;10.586;2023-10-09T08:17:49;14.60;80.70
38183;DHT22;23991;52.430;10.586;2023-10-09T08:20:26;14.70;80.40
38183;DHT22;23991;52.430;10.586;2023-10-09T08:22:52;14.80;80.10
38183;DHT22;23991;52.430;10.586;2023-10-09T08:25:22;14.90;79.80
38183;DHT22;23991;52.430;10.586;2023-10-09T08:28:02;14.90;79.70
38183;DHT22;23991;52.430;10.586;2023-10-09T08:30:40;14.90;79.70
38183;DHT22;23991;52.430;10.586;2023-10-09T08:33:14;14.90;79.70
38183;DHT22;23991;52.430;10.586;2023-10-09T08:35:53;15.00;79.60
38183;DHT22;23991;52.430;10.586;2023-10-09T08:38:27;15.00;79.20
38183;DHT22;23991;52.430;10.586;2023-10-09T08:41:06;15.10;79.30
38183;DHT22;23991;52.430;10.586;2023-10-09T08:43:47;15.20;78.90
38183;DHT22;23991;52.430;10.586;2023-10-09T08:46:14;15.30;78.60
38183;DHT22;23991;52.430;10.586;2023-10-09T08:48:44;15.30;78.50
38183;DHT22;23991;52.430;10.586;2023-10-09T08:51:11;15.40;78.50
38183;DHT22;23991;52.430;10.586;2023-10-09T08:53:37;15.40;78.50
38183;DHT22;23991;52.430;10.586;2023-10-09T08:56:13;15.40;78.40
38183;DHT22;23991;52.430;10.586;2023-10-09T08:58:41;15.40;78.40
38183;DHT22;23991;52.430;10.586;2023-10-09T09:01:07;15.50;78.10
38183;DHT22;23991;52.430;10.586;2023-10-09T09:03:40;15.60;78.10
38183;DHT22;23991;52.430;10.586;2023-10-09T09:06:09;15.60;77.70
38183;DHT22;23991;52.430;10.586;2023-10-09T09:08:36;15.80;77.40
38183;DHT22;23991;52.430;10.586;2023-10-09T09:11:08;15.80;77.40
38183;DHT22;23991;52.430;10.586;2023-10-09T09:13:44;15.80;77.30
38183;DHT22;23991;52.430;10.586;2023-10-09T09:16:24;16.00;76.80
38183;DHT22;23991;52.430;10.586;2023-10-09T09:18:57;16.00;77.20
38183;DHT22;23991;52.430;10.586;2023-10-09T09:21:29;16.00;76.80
38183;DHT22;23991;52.430;10.586;2023-10-09T09:23:59;15.90;77.80
38183;DHT22;23991;52.430;10.586;2023-10-09T09:26:37;16.00;77.60
38183;DHT22;23991;52.430;10.586;2023-10-09T09:29:11;16.10;77.00
38183;DHT22;23991;52.430;10.586;2023-10-09T09:31:37;16.10;77.10
38183;DHT22;23991;52.430;10.586;2023-10-09T09:34:08;16.20;77.00
38183;DHT22;23991;52.430;10.586;2023-10-09T09:36:56;16.30;76.50
38183;DHT22;23991;52.430;10.586;2023-10-09T09:39:26;16.30;76.30
38183;DHT22;23991;52.430;10.586;2023-10-09T09:42:00;16.30;76.70
38183;DHT22;23991;52.430;10.586;2023-10-09T09:44:39;16.30;77.20
38183;DHT22;23991;52.430;10.586;2023-10-09T09:47:15;16.40;77.20
38183;DHT22;23991;52.430;10.586;2023-10-09T09:50:01;16.50;76.50
38183;DHT22;23991;52.430;10.586;2023-10-09T09:52:43;16.60;76.30
38183;DHT22;23991;52.430;10.586;2023-10-09T09:55:10;16.80;75.90
38183;DHT22;23991;52.430;10.586;2023-10-09T09:57:48;16.80;75.90
38183;DHT22;23991;52.430;10.586;2023-10-09T10:00:19;16.80;75.90
38183;DHT22;23991;52.430;10.586;2023-10-09T10:03:30;16.90;75.70
38183;DHT22;23991;52.430;10.586;2023-10-09T10:05:55;17.00;75.40
38183;DHT22;23991;52.430;10.586;2023-10-09T10:08:23;17.10;75.40
38183;DHT22;23991;52.430;10.586;2023-10-09T10:10:56;17.20;75.30
38183;DHT22;23991;52.430;10.586;2023-10-09T10:13:55;17.00;76.20
38183;DHT22;23991;52.430;10.586;2023-10-09T10:16:24;17.00;76.40
38183;DHT22;23991;52.430;10.586;2023-10-09T10:19:03;17.20;76.10
38183;DHT22;23991;52.430;10.586;2023-10-09T10:21:41;17.20;76.50
38183;DHT22;23991;52.430;10.586;2023-10-09T10:35:18;17.20;78.00
38183;DHT22;23991;52.430;10.586;2023-10-09T10:38:22;17.30;78.60
38183;DHT22;23991;52.430;10.586;2023-10-09T10:40:48;17.50;79.10
38183;DHT22;23991;52.430;10.586;2023-10-09T10:43:23;17.60;79.40
38183;DHT22;23991;52.430;10.586;2023-10-09T10:46:07;17.70;79.00
38183;DHT22;23991;52.430;10.586;2023-10-09T10:49:06;17.80;79.10
38183;DHT22;23991;52.430;10.586;2023-10-09T10:51:38;17.90;78.90
38183;DHT22;23991;52.430;10.586;2023-10-09T10:54:05;18.00;78.50
38183;DHT22;23991;52.430;10.586;2023-10-09T10:57:19;18.10;78.30
38183;DHT22;23991;52.430;10.586;2023-10-09T10:59:56;18.10;78.00
38183;DHT22;23991;52.430;10.586;2023-10-09T11:03:00;18.30;78.10
38183;DHT22;23991;52.430;10.586;2023-10-09T11:05:42;18.30;77.50
38183;DHT22;23991;52.430;10.586;2023-10-09T11:08:11;18.30;77.80
38183;DHT22;23991;52.430;10.586;2023-10-09T11:10:38;18.40;77.80
38183;DHT22;23991;52.430;10.586;2023-10-09T11:13:25;18.40;77.70
38183;DHT22;23991;52.430;10.586;2023-10-09T11:16:18;18.40;77.30
38183;DHT22;23991;52.430;10.586;2023-10-09T11:19:08;18.40;77.80
38183;DHT22;23991;52.430;10.586;2023-10-09T11:21:53;18.40;77.90
38183;DHT22;23991;52.430;10.586;2023-10-09T11:24:28;18.40;78.00
38183;DHT22;23991;52.430;10.586;2023-10-09T11:27:01;18.40;77.80
38183;DHT22;23991;52.430;10.586;2023-10-09T11:29:32;18.40;78.00
38183;DHT22;23991;52.430;10.586;2023-10-09T11:32:18;18.50;77.70
38183;DHT22;23991;52.430;10.586;2023-10-09T11:34:48;18.50;77.80
38183;DHT22;23991;52.430;10.586;2023-10-09T11:37:18;18.60;77.50
38183;DHT22;23991;52.430;10.586;2023-10-09T11:39:53;18.70;77.20
38183;DHT22;23991;52.430;10.586;2023-10-09T11:42:24;18.70;77.40
38183;DHT22;23991;52.430;10.586;2023-10-09T11:45:18;18.80;77.30
38183;DHT22;23991;52.430;10.586;2023-10-09T11:47:54;18.80;77.10
38183;DHT22;23991;52.430;10.586;2023-10-09T11:53:43;18.90;77.30
38183;DHT22;23991;52.430;10.586;2023-10-09T11:56:11;18.90;77.40
38183;DHT22;23991;52.430;10.586;2023-10-09T11:58:42;18.90;77.50
38183;DHT22;23991;52.430;10.586;2023-10-09T12:01:14;19.00;77.00
38183;DHT22;23991;52.430;10.586;2023-10-09T12:03:43;19.00;77.00
38183;DHT22;23991;52.430;10.586;2023-10-09T12:06:15;19.10;76.60
38183;DHT22;23991;52.430;10.586;2023-10-09T12:08:44;19.10;77.00
38183;DHT22;23991;52.430;10.586;2023-10-09T12:11:12;19.00;76.90
38183;DHT22;23991;52.430;10.586;2023-10-09T12:13:39;19.20;76.60
38183;DHT22;23991;52.430;10.586;2023-10-09T12:16:08;19.20;76.60
38183;DHT22;23991;52.430;10.586;2023-10-09T12:18:35;19.20;76.70
38183;DHT22;23991;52.430;10.586;2023-10-09T12:21:01;19.20;76.90
38183;DHT22;23991;52.430;10.586;2023-10-09T12:23:30;19.20;76.60
38183;DHT22;23991;52.430;10.586;2023-10-09T12:26:02;19.20;77.20
38183;DHT22;23991;52.430;10.586;2023-10-09T12:28:28;19.20;76.90
38183;DHT22;23991;52.430;10.586;2023-10-09T12:30:55;19.30;76.40
38183;DHT22;23991;52.430;10.586;2023-10-09T12:33:22;19.30;76.70
38183;DHT22;23991;52.430;10.586;2023-10-09T12:35:57;19.30;76.60
38183;DHT22;23991;52.430;10.586;2023-10-09T12:38:29;19.40;76.30
38183;DHT22;23991;52.430;10.586;2023-10-09T12:41:05;19.50;76.40
38183;DHT22;23991;52.430;10.586;2023-10-09T12:43:45;19.50;76.00
38183;DHT22;23991;52.430;10.586;2023-10-09T12:46:11;19.50;75.90
38183;DHT22;23991;52.430;10.586;2023-10-09T12:48:44;19.70;75.50
38183;DHT22;23991;52.430;10.586;2023-10-09T12:51:14;19.80;75.60
38183;DHT22;23991;52.430;10.586;2023-10-09T12:53:43;19.80;75.40
38183;DHT22;23991;52.430;10.586;2023-10-09T12:56:09;19.80;75.50
38183;DHT22;23991;52.430;10.586;2023-10-09T12:58:40;19.80;75.60
38183;DHT22;23991;52.430;10.586;2023-10-09T13:01:18;19.90;75.00
38183;DHT22;23991;52.430;10.586;2023-10-09T13:03:44;19.80;75.20
38183;DHT22;23991;52.430;10.586;2023-10-09T13:06:14;19.80;75.30
38183;DHT22;23991;52.430;10.586;2023-10-09T13:08:41;19.80;75.40
38183;DHT22;23991;52.430;10.586;2023-10-09T13:11:11;19.80;75.30
38183;DHT22;23991;52.430;10.586;2023-10-09T13:13:41;19.80;75.20
38183;DHT22;23991;52.430;10.586;2023-10-09T13:16:09;19.80;75.30
38183;DHT22;23991;52.430;10.586;2023-10-09T13:18:41;19.90;75.20
38183;DHT22;23991;52.430;10.586;2023-10-09T13:21:15;19.80;75.20
38183;DHT22;23991;52.430;10.586;2023-10-09T13:23:41;19.90;75.00
38183;DHT22;23991;52.430;10.586;2023-10-09T13:26:16;19.90;75.20
38183;DHT22;23991;52.430;10.586;2023-10-09T13:28:49;19.90;75.20
38183;DHT22;23991;52.430;10.586;2023-10-09T13:31:16;19.90;74.80
38183;DHT22;23991;52.430;10.586;2023-10-09T13:33:43;20.00;74.70
38183;DHT22;23991;52.430;10.586;2023-10-09T13:36:10;20.00;74.80
38183;DHT22;23991;52.430;10.586;2023-10-09T13:38:56;20.10;74.70
38183;DHT22;23991;52.430;10.586;2023-10-09T13:41:22;20.10;74.50
38183;DHT22;23991;52.430;10.586;2023-10-09T13:43:51;20.00;74.80
38183;DHT22;23991;52.430;10.586;2023-10-09T13:46:17;20.00;74.80
38183;DHT22;23991;52.430;10.586;2023-10-09T13:48:44;20.00;74.80
38183;DHT22;23991;52.430;10.586;2023-10-09T13:51:11;20.00;75.00
38183;DHT22;23991;52.430;10.586;2023-10-09T13:53:46;20.00;75.00
38183;DHT22;23991;52.430;10.586;2023-10-09T13:56:20;20.00;75.00
38183;DHT22;23991;52.430;10.586;2023-10-09T13:58:50;20.00;75.20
38183;DHT22;23991;52.430;10.586;2023-10-09T14:01:17;20.00;75.20
38183;DHT22;23991;52.430;10.586;2023-10-09T14:03:59;20.10;75.10
38183;DHT22;23991;52.430;10.586;2023-10-09T14:06:26;20.10;74.80
38183;DHT22;23991;52.430;10.586;2023-10-09T14:09:00;20.00;75.10
38183;DHT22;23991;52.430;10.586;2023-10-09T14:11:31;20.10;75.20
38183;DHT22;23991;52.430;10.586;2023-10-09T14:13:58;20.10;75.10
38183;DHT22;23991;52.430;10.586;2023-10-09T14:16:27;20.10;75.00
38183;DHT22;23991;52.430;10.586;2023-10-09T14:18:54;20.20;74.80
38183;DHT22;23991;52.430;10.586;2023-10-09T14:21:28;20.20;74.80
38183;DHT22;23991;52.430;10.586;2023-10-09T14:23:56;20.20;75.30
38183;DHT22;23991;52.430;10.586;2023-10-09T14:26:26;20.20;75.10
38183;DHT22;23991;52.430;10.586;2023-10-09T14:28:53;20.20;75.20
38183;DHT22;23991;52.430;10.586;2023-10-09T14:31:25;20.20;75.10
38183;DHT22;23991;52.430;10.586;2023-10-09T14:33:55;20.30;75.00
38183;DHT22;23991;52.430;10.586;2023-10-09T14:36:22;20.30;74.90
38183;DHT22;23991;52.430;10.586;2023-10-09T14:38:51;20.20;75.20
38183;DHT22;23991;52.430;10.586;2023-10-09T14:41:21;20.20;75.10
38183;DHT22;23991;52.430;10.586;2023-10-09T14:43:51;20.20;74.90
38183;DHT22;23991;52.430;10.586;2023-10-09T14:46:20;20.30;74.80
38183;DHT22;23991;52.430;10.586;2023-10-09T14:48:54;20.30;74.80
38183;DHT22;23991;52.430;10.586;2023-10-09T14:51:24;20.30;74.80
38183;DHT22;23991;52.430;10.586;2023-10-09T14:53:57;20.30;74.80
38183;DHT22;23991;52.430;10.586;2023-10-09T14:56:29;20.40;74.40
38183;DHT22;23991;52.430;10.586;2023-10-09T14:58:59;20.40;74.80
38183;DHT22;23991;52.430;10.586;2023-10-09T15:01:31;20.50;74.70
38183;DHT22;23991;52.430;10.586;2023-10-09T15:03:58;20.40;75.00
38183;DHT22;23991;52.430;10.586;2023-10-09T15:06:25;20.40;75.00
38183;DHT22;23991;52.430;10.586;2023-10-09T15:08:52;20.40;74.80
38183;DHT22;23991;52.430;10.586;2023-10-09T15:11:22;20.40;74.90
38183;DHT22;23991;52.430;10.586;2023-10-09T15:13:49;20.30;74.90
38183;DHT22;23991;52.430;10.586;2023-10-09T15:16:14;20.40;75.20
38183;DHT22;23991;52.430;10.586;2023-10-09T15:18:40;20.40;74.90
38183;DHT22;23991;52.430;10.586;2023-10-09T15:21:05;20.50;74.60
38183;DHT22;23991;52.430;10.586;2023-10-09T15:23:34;20.60;74.40
38183;DHT22;23991;52.430;10.586;2023-10-09T15:26:02;20.60;74.20
38183;DHT22;23991;52.430;10.586;2023-10-09T15:28:27;20.50;74.40
38183;DHT22;23991;52.430;10.586;2023-10-09T15:30:58;20.50;74.20
38183;DHT22;23991;52.430;10.586;2023-10-09T15:33:24;20.60;74.40
38183;DHT22;23991;52.430;10.586;2023-10-09T15:35:56;20.60;74.50
38183;DHT22;23991;52.430;10.586;2023-10-09T15:38:22;20.50;74.50
38183;DHT22;23991;52.430;10.586;2023-10-09T15:40:49;20.60;74.50
38183;DHT22;23991;52.430;10.586;2023-10-09T15:43:15;20.60;74.20
38183;DHT22;23991;52.430;10.586;2023-10-09T15:45:45;20.50;74.10
38183;DHT22;23991;52.430;10.586;2023-10-09T15:48:14;20.60;74.20
38183;DHT22;23991;52.430;10.586;2023-10-09T15:50:45;20.60;74.00
38183;DHT22;23991;52.430;10.586;2023-10-09T15:53:14;20.60;73.90
38183;DHT22;23991;52.430;10.586;2023-10-09T15:55:43;20.60;73.90
38183;DHT22;23991;52.430;10.586;2023-10-09T15:58:09;20.70;73.80
38183;DHT22;23991;52.430;10.586;2023-10-09T16:00:35;20.70;73.30
38183;DHT22;23991;52.430;10.586;2023-10-09T16:03:03;20.70;73.40
38183;DHT22;23991;52.430;10.586;2023-10-09T16:05:29;20.80;73.00
38183;DHT22;23991;52.430;10.586;2023-10-09T16:07:57;20.70;73.50
38183;DHT22;23991;52.430;10.586;2023-10-09T16:10:23;20.70;73.50
38183;DHT22;23991;52.430;10.586;2023-10-09T16:12:49;20.60;73.30
38183;DHT22;23991;52.430;10.586;2023-10-09T16:15:18;20.60;73.40
38183;DHT22;23991;52.430;10.586;2023-10-09T16:17:49;20.50;73.60
38183;DHT22;23991;52.430;10.586;2023-10-09T16:20:25;20.60;73.40